createdAt,value
2018-07-26T00:02:06.641Z,23.42
2018-07-26T00:04:35.893Z,23.44
2018-07-26T00:07:04.914Z,23.41
2018-07-26T00:09:33.746Z,23.48
2018-07-26T00:12:02.694Z,23.48
2018-07-26T00:14:31.936Z,23.49
2018-07-26T00:17:01.075Z,23.54
2018-07-26T00:19:30.027Z,23.51
2018-07-26T00:21:59.156Z,23.46
2018-07-26T00:24:28.023Z,23.52
2018-07-26T00:26:57.192Z,23.48
2018-07-26T00:29:26.224Z,23.40
2018-07-26T00:31:55.231Z,23.37
2018-07-26T00:34:24.599Z,23.29
2018-07-26T00:36:53.817Z,23.30
2018-07-26T00:39:23.159Z,23.25
2018-07-26T00:41:52.062Z,23.20
2018-07-26T00:44:20.985Z,23.22
2018-07-26T00:46:50.097Z,23.23
2018-07-26T00:49:19.103Z,23.25
2018-07-26T00:51:48.142Z,23.21
2018-07-26T00:54:17.280Z,23.14
2018-07-26T00:56:46.610Z,23.23
2018-07-26T00:59:15.634Z,23.22
2018-07-26T01:01:44.656Z,23.25
2018-07-26T01:04:13.554Z,23.25
2018-07-26T01:06:42.884Z,23.23
2018-07-26T01:09:12.774Z,23.17
2018-07-26T01:11:42.018Z,23.10
2018-07-26T01:14:11.173Z,23.13
2018-07-26T01:16:40.260Z,23.03
2018-07-26T01:19:09.027Z,23.07
2018-07-26T01:21:37.843Z,23.16
2018-07-26T01:24:06.921Z,23.10
2018-07-26T01:26:35.861Z,23.20
2018-07-26T01:29:05.022Z,23.28
2018-07-26T01:31:34.293Z,23.23
2018-07-26T01:34:03.379Z,23.17
2018-07-26T01:36:32.223Z,23.09
2018-07-26T01:39:01.239Z,23.03
2018-07-26T01:41:30.351Z,23.07
2018-07-26T01:44:10.267Z,23.12
2018-07-26T01:46:39.375Z,23.19
2018-07-26T01:49:08.168Z,23.24
2018-07-26T01:51:37.398Z,23.27
2018-07-26T01:54:06.505Z,23.26
2018-07-26T01:56:35.458Z,23.32
2018-07-26T01:59:04.487Z,23.26
2018-07-26T02:01:33.381Z,23.25
2018-07-26T02:04:02.559Z,23.22
2018-07-26T02:06:31.786Z,23.20
2018-07-26T02:09:00.951Z,23.15
2018-07-26T02:11:30.212Z,23.11
2018-07-26T02:13:59.470Z,23.09
2018-07-26T02:16:28.684Z,23.05
2018-07-26T02:18:57.758Z,23.02
2018-07-26T02:21:26.958Z,22.95
2018-07-26T02:23:56.211Z,22.92
2018-07-26T02:26:25.233Z,22.91
2018-07-26T02:28:54.242Z,22.84
2018-07-26T02:31:23.446Z,22.80
2018-07-26T02:33:52.324Z,22.76
2018-07-26T02:36:21.448Z,22.69
2018-07-26T02:38:50.643Z,22.63
2018-07-26T02:41:19.690Z,22.62
2018-07-26T02:43:48.698Z,22.57
2018-07-26T02:46:17.627Z,22.51
2018-07-26T02:48:46.632Z,22.46
2018-07-26T02:51:15.600Z,22.45
2018-07-26T02:53:44.790Z,22.40
2018-07-26T02:56:13.810Z,22.40
2018-07-26T02:58:42.941Z,22.39
2018-07-26T03:01:11.997Z,22.38
2018-07-26T03:03:41.167Z,22.41
2018-07-26T03:06:10.289Z,22.45
2018-07-26T03:08:39.060Z,22.48
2018-07-26T03:11:08.163Z,22.40
2018-07-26T03:13:37.081Z,22.44
2018-07-26T03:16:06.446Z,22.49
2018-07-26T03:18:35.452Z,22.46
2018-07-26T03:21:04.605Z,22.48
2018-07-26T03:23:33.331Z,22.49
2018-07-26T03:26:02.411Z,22.44
2018-07-26T03:28:31.351Z,22.38
2018-07-26T03:31:00.365Z,22.34
2018-07-26T03:33:29.404Z,22.37
2018-07-26T03:35:58.703Z,22.43
2018-07-26T03:38:27.578Z,22.41
2018-07-26T03:40:56.842Z,22.33
2018-07-26T03:43:26.278Z,22.52
2018-07-26T03:45:55.433Z,22.53
2018-07-26T03:48:24.361Z,22.46
2018-07-26T03:50:53.427Z,22.43
2018-07-26T03:53:22.751Z,22.67
2018-07-26T03:55:51.957Z,22.67
2018-07-26T03:58:21.196Z,22.71
2018-07-26T04:00:49.922Z,22.83
2018-07-26T04:03:18.920Z,22.98
2018-07-26T04:05:48.088Z,23.01
2018-07-26T04:08:17.363Z,23.17
2018-07-26T04:10:46.327Z,23.21
2018-07-26T04:13:15.461Z,23.24
2018-07-26T04:15:44.323Z,23.22
2018-07-26T04:18:13.114Z,23.28
2018-07-26T04:20:41.978Z,23.30
2018-07-26T04:23:11.143Z,23.30
2018-07-26T04:25:40.154Z,23.26
2018-07-26T04:28:09.168Z,23.09
2018-07-26T04:30:38.337Z,22.87
2018-07-26T04:33:07.605Z,22.62
2018-07-26T04:35:36.652Z,22.44
2018-07-26T04:38:05.885Z,22.28
2018-07-26T04:40:35.208Z,22.35
2018-07-26T04:43:04.632Z,22.36
2018-07-26T04:45:33.778Z,22.44
2018-07-26T04:48:02.795Z,22.47
2018-07-26T04:50:31.911Z,22.50
2018-07-26T04:53:00.722Z,22.60
2018-07-26T04:55:29.753Z,22.53
2018-07-26T04:57:58.840Z,22.53
2018-07-26T05:00:27.789Z,22.53
2018-07-26T05:05:24.889Z,22.61
2018-07-26T05:07:53.888Z,22.70
2018-07-26T05:10:22.755Z,22.76
2018-07-26T05:12:51.842Z,22.69
2018-07-26T05:15:20.739Z,22.73
2018-07-26T05:17:49.903Z,22.85
2018-07-26T05:20:18.929Z,22.98
2018-07-26T05:22:48.062Z,23.07
2018-07-26T05:25:17.098Z,23.13
2018-07-26T05:27:46.382Z,23.26
2018-07-26T05:30:15.478Z,23.22
2018-07-26T05:32:44.618Z,23.09
2018-07-26T05:35:13.658Z,23.02
2018-07-26T05:37:42.915Z,23.07
2018-07-26T05:40:11.851Z,23.24
2018-07-26T05:42:40.949Z,23.32
2018-07-26T05:45:09.949Z,23.47
2018-07-26T05:47:38.762Z,23.48
2018-07-26T05:50:08.158Z,23.50
2018-07-26T05:52:37.448Z,23.68
2018-07-26T05:55:07.231Z,23.78
2018-07-26T05:57:36.591Z,23.80
2018-07-26T06:00:11.043Z,23.82
2018-07-26T06:02:40.286Z,23.82
2018-07-26T06:05:09.829Z,23.90
2018-07-26T06:07:39.153Z,24.05
2018-07-26T06:10:08.845Z,24.20
2018-07-26T06:12:38.083Z,24.28
2018-07-26T06:15:09.724Z,24.43
2018-07-26T06:17:38.890Z,24.63
2018-07-26T06:20:10.156Z,24.55
2018-07-26T06:22:39.753Z,24.54
2018-07-26T06:25:09.389Z,24.52
2018-07-26T06:27:38.434Z,24.49
2018-07-26T06:30:10.527Z,24.64
2018-07-26T06:32:39.490Z,24.75
2018-07-26T06:35:09.439Z,24.95
2018-07-26T06:37:38.651Z,24.89
2018-07-26T06:40:07.830Z,24.93
2018-07-26T06:42:37.130Z,25.00
2018-07-26T06:45:07.658Z,25.20
2018-07-26T06:47:36.811Z,25.34
2018-07-26T06:50:07.540Z,25.50
2018-07-26T06:52:36.755Z,25.64
2018-07-26T06:55:05.900Z,25.74
2018-07-26T06:57:35.130Z,25.85
2018-07-26T07:00:04.997Z,25.96
2018-07-26T07:02:34.228Z,26.05
2018-07-26T07:05:03.291Z,26.05
2018-07-26T07:07:32.332Z,26.10
2018-07-26T07:10:01.221Z,26.04
2018-07-26T07:12:30.271Z,25.88
2018-07-26T07:14:59.509Z,25.77
2018-07-26T07:17:28.507Z,25.84
2018-07-26T07:19:57.797Z,25.98
2018-07-26T07:22:27.033Z,26.15
2018-07-26T07:24:56.192Z,26.40
2018-07-26T07:27:25.328Z,26.51
2018-07-26T07:29:54.438Z,26.54
2018-07-26T07:32:23.508Z,26.74
2018-07-26T07:34:52.498Z,26.94
2018-07-26T07:37:21.627Z,27.14
2018-07-26T07:39:50.443Z,27.32
2018-07-26T07:42:19.501Z,27.36
2018-07-26T07:44:48.551Z,27.45
2018-07-26T07:47:17.779Z,27.59
2018-07-26T07:49:46.863Z,27.76
2018-07-26T07:52:16.824Z,27.85
2018-07-26T07:54:45.834Z,27.95
2018-07-26T07:57:14.900Z,28.08
2018-07-26T07:59:43.957Z,28.21
2018-07-26T08:02:13.174Z,28.26
2018-07-26T08:04:42.235Z,28.08
2018-07-26T08:07:11.417Z,28.18
2018-07-26T08:09:40.207Z,28.27
2018-07-26T08:12:09.418Z,28.26
2018-07-26T08:14:38.594Z,28.34
2018-07-26T08:17:07.807Z,28.37
2018-07-26T08:19:37.833Z,28.47
2018-07-26T08:22:06.894Z,28.72
2018-07-26T08:24:36.065Z,28.79
2018-07-26T08:27:05.284Z,28.68
2018-07-26T08:29:34.094Z,28.83
2018-07-26T08:32:03.129Z,29.04
2018-07-26T08:34:32.215Z,28.87
2018-07-26T08:37:01.354Z,29.03
2018-07-26T08:39:30.534Z,29.36
2018-07-26T08:41:59.623Z,29.70
2018-07-26T08:44:28.474Z,29.54
2018-07-26T08:46:57.376Z,29.14
2018-07-26T08:49:26.425Z,29.16
2018-07-26T08:51:55.710Z,28.94
2018-07-26T08:54:24.845Z,28.87
2018-07-26T08:56:53.966Z,29.00
2018-07-26T08:59:23.289Z,29.34
2018-07-26T09:01:52.155Z,29.37
2018-07-26T09:04:21.408Z,29.61
2018-07-26T09:06:50.688Z,29.83
2018-07-26T09:09:19.918Z,29.90
2018-07-26T09:11:49.101Z,30.11
2018-07-26T09:14:18.735Z,30.04
2018-07-26T09:16:47.883Z,30.02
2018-07-26T09:19:16.950Z,30.18
2018-07-26T09:21:45.960Z,30.31
2018-07-26T09:24:14.769Z,30.83
2018-07-26T09:26:43.810Z,31.62
2018-07-26T09:29:12.808Z,32.40
2018-07-26T09:31:41.898Z,32.61
2018-07-26T09:34:11.106Z,33.15
2018-07-26T09:36:40.490Z,34.59
2018-07-26T09:39:14.812Z,36.06
2018-07-26T09:41:43.983Z,37.22
2018-07-26T09:44:13.196Z,38.35
2018-07-26T09:46:42.420Z,39.62
2018-07-26T09:49:11.586Z,41.00
2018-07-26T09:51:40.750Z,42.06
2018-07-26T09:54:09.738Z,42.95
2018-07-26T09:56:38.984Z,43.83
2018-07-26T09:59:08.207Z,44.61
2018-07-26T10:01:38.709Z,45.58
2018-07-26T10:04:07.779Z,45.98
2018-07-26T10:06:36.955Z,46.55
2018-07-26T10:09:09.494Z,47.12
2018-07-26T10:11:38.550Z,47.66
2018-07-26T10:14:07.739Z,46.73
2018-07-26T10:16:36.892Z,44.76
2018-07-26T10:19:05.871Z,44.03
2018-07-26T10:21:34.634Z,44.51
2018-07-26T10:24:03.834Z,44.69
2018-07-26T10:26:32.883Z,43.35
2018-07-26T10:29:01.963Z,41.42
2018-07-26T10:31:30.814Z,39.75
2018-07-26T10:33:59.901Z,38.19
2018-07-26T10:36:28.942Z,37.28
2018-07-26T10:38:57.841Z,36.15
2018-07-26T10:41:26.943Z,36.19
2018-07-26T10:43:56.105Z,36.05
2018-07-26T10:46:25.472Z,35.53
2018-07-26T10:48:55.004Z,36.85
2018-07-26T10:51:23.976Z,37.68
2018-07-26T10:53:53.107Z,39.72
2018-07-26T10:56:21.958Z,41.03
2018-07-26T10:58:50.984Z,42.99
2018-07-26T11:01:20.207Z,44.45
2018-07-26T11:03:49.373Z,44.98
2018-07-26T11:06:18.414Z,44.64
2018-07-26T11:08:47.726Z,44.63
2018-07-26T11:11:16.538Z,44.80
2018-07-26T11:13:45.814Z,44.06
2018-07-26T11:16:14.815Z,43.73
2018-07-26T11:18:43.774Z,43.75
2018-07-26T11:21:13.093Z,44.99
2018-07-26T11:23:42.294Z,46.01
2018-07-26T11:26:11.347Z,46.84
2018-07-26T11:28:40.577Z,45.68
2018-07-26T11:31:09.426Z,44.04
2018-07-26T11:33:38.530Z,42.74
2018-07-26T11:36:08.229Z,41.35
2018-07-26T11:38:37.119Z,41.42
2018-07-26T11:41:06.359Z,41.88
2018-07-26T11:43:35.542Z,42.86
2018-07-26T11:46:04.738Z,43.22
2018-07-26T11:48:33.818Z,43.47
2018-07-26T11:51:03.038Z,42.64
2018-07-26T11:53:32.243Z,43.23
2018-07-26T11:56:01.391Z,43.13
2018-07-26T11:58:30.542Z,42.76
2018-07-26T12:00:59.642Z,42.57
2018-07-26T12:03:28.886Z,41.00
2018-07-26T12:05:58.222Z,39.40
2018-07-26T12:08:26.897Z,39.83
2018-07-26T12:10:56.071Z,38.78
2018-07-26T12:13:25.196Z,38.91
2018-07-26T12:15:54.458Z,39.84
2018-07-26T12:18:23.663Z,40.32
2018-07-26T12:20:52.929Z,41.18
2018-07-26T12:23:22.019Z,41.54
2018-07-26T12:25:51.047Z,41.90
2018-07-26T12:28:19.818Z,42.43
2018-07-26T12:30:49.006Z,42.83
2018-07-26T12:33:18.347Z,42.45
2018-07-26T12:35:47.411Z,42.24
2018-07-26T12:38:16.592Z,41.90
2018-07-26T12:40:45.949Z,40.65
2018-07-26T12:43:14.763Z,41.10
2018-07-26T12:45:43.850Z,41.24
2018-07-26T12:48:12.695Z,42.71
2018-07-26T12:50:41.907Z,43.23
2018-07-26T12:53:11.224Z,44.32
2018-07-26T12:55:40.124Z,44.48
2018-07-26T12:58:09.036Z,44.66
2018-07-26T13:00:38.261Z,44.22
2018-07-26T13:03:07.130Z,41.90
2018-07-26T13:05:36.575Z,40.57
2018-07-26T13:08:05.822Z,39.52
2018-07-26T13:10:34.779Z,38.89
2018-07-26T13:13:03.928Z,37.98
2018-07-26T13:15:32.977Z,36.82
2018-07-26T13:18:01.833Z,35.85
2018-07-26T13:20:30.889Z,35.43
2018-07-26T13:22:59.888Z,35.08
2018-07-26T13:25:29.083Z,34.49
2018-07-26T13:27:58.222Z,34.26
2018-07-26T13:30:27.496Z,34.11
2018-07-26T13:32:56.835Z,33.89
2018-07-26T13:35:26.084Z,33.78
2018-07-26T13:37:55.267Z,33.32
2018-07-26T13:40:24.294Z,32.91
2018-07-26T13:42:53.257Z,32.57
2018-07-26T13:45:22.438Z,32.43
2018-07-26T13:47:51.605Z,32.32
2018-07-26T13:50:20.807Z,32.07
2018-07-26T13:52:50.003Z,32.07
2018-07-26T13:55:19.166Z,32.07
2018-07-26T13:57:48.405Z,32.22
2018-07-26T14:00:17.400Z,32.29
2018-07-26T14:02:46.538Z,32.66
2018-07-26T14:05:16.007Z,32.84
2018-07-26T14:07:45.071Z,32.10
2018-07-26T14:10:14.030Z,32.39
2018-07-26T14:12:42.806Z,32.20
2018-07-26T14:15:12.036Z,32.20
2018-07-26T14:17:41.161Z,31.91
2018-07-26T14:20:12.123Z,31.97
2018-07-26T14:22:41.776Z,31.85
2018-07-26T14:25:11.070Z,31.84
2018-07-26T14:27:40.234Z,31.74
2018-07-26T14:30:10.166Z,31.64
2018-07-26T14:32:39.010Z,31.66
2018-07-26T14:35:07.972Z,31.68
2018-07-26T14:37:36.753Z,31.52
2018-07-26T14:40:06.563Z,31.42
2018-07-26T14:42:35.742Z,31.27
2018-07-26T14:45:05.653Z,31.14
2018-07-26T14:47:34.707Z,31.12
2018-07-26T14:50:03.874Z,31.09
2018-07-26T14:52:32.975Z,30.99
2018-07-26T14:55:02.094Z,30.95
2018-07-26T14:57:30.981Z,31.00
2018-07-26T15:00:00.284Z,30.97
2018-07-26T15:02:29.932Z,30.88
2018-07-26T15:04:59.201Z,30.82
2018-07-26T15:07:28.667Z,30.64
2018-07-26T15:09:57.776Z,30.50
2018-07-26T15:12:26.939Z,30.28
2018-07-26T15:14:55.977Z,29.85
2018-07-26T15:17:24.808Z,29.61
2018-07-26T15:19:54.095Z,29.27
2018-07-26T15:22:22.921Z,29.24
2018-07-26T15:24:51.889Z,29.38
2018-07-26T15:27:20.751Z,29.34
2018-07-26T15:29:49.721Z,29.29
2018-07-26T15:32:18.680Z,29.19
2018-07-26T15:34:47.768Z,29.16
2018-07-26T15:37:16.895Z,29.25
2018-07-26T15:39:46.126Z,29.29
2018-07-26T15:42:15.294Z,29.25
2018-07-26T15:44:44.481Z,29.22
2018-07-26T15:47:13.598Z,29.29
2018-07-26T15:49:42.640Z,29.18
2018-07-26T15:52:11.703Z,29.25
2018-07-26T15:54:40.719Z,29.33
2018-07-26T15:57:09.878Z,29.26
2018-07-26T15:59:39.049Z,29.27
2018-07-26T16:02:08.179Z,29.08
2018-07-26T16:04:37.452Z,29.13
2018-07-26T16:07:06.597Z,29.05
2018-07-26T16:09:35.505Z,28.99
2018-07-26T16:12:04.637Z,29.00
2018-07-26T16:14:33.820Z,28.95
2018-07-26T16:17:02.852Z,28.85
2018-07-26T16:19:32.042Z,29.09
2018-07-26T16:22:01.403Z,29.17
2018-07-26T16:24:30.618Z,29.08
2018-07-26T16:26:59.889Z,29.06
2018-07-26T16:29:28.933Z,29.04
2018-07-26T16:31:58.147Z,28.97
2018-07-26T16:34:27.284Z,28.85
2018-07-26T16:36:56.519Z,28.69
2018-07-26T16:39:25.753Z,28.41
2018-07-26T16:41:54.520Z,28.34
2018-07-26T16:44:23.401Z,28.46
2018-07-26T16:46:52.429Z,28.49
2018-07-26T16:49:21.711Z,28.32
2018-07-26T16:51:50.630Z,27.96
2018-07-26T16:54:19.838Z,27.86
2018-07-26T16:56:48.650Z,27.35
2018-07-26T16:59:17.502Z,27.35
2018-07-26T17:01:46.715Z,27.41
2018-07-26T17:04:15.805Z,26.97
2018-07-26T17:06:44.959Z,27.01
2018-07-26T17:09:14.054Z,27.18
2018-07-26T17:11:43.242Z,27.08
2018-07-26T17:14:12.285Z,27.00
2018-07-26T17:16:41.639Z,27.09
2018-07-26T17:19:10.966Z,27.21
2018-07-26T17:21:39.835Z,27.26
2018-07-26T17:24:08.922Z,27.22
2018-07-26T17:26:38.123Z,27.18
2018-07-26T17:29:07.331Z,27.17
2018-07-26T17:31:36.719Z,27.12
2018-07-26T17:34:05.975Z,27.10
2018-07-26T17:36:35.292Z,27.01
2018-07-26T17:39:05.246Z,26.90
2018-07-26T17:41:34.115Z,26.81
2018-07-26T17:44:03.114Z,26.81
2018-07-26T17:46:32.039Z,26.88
2018-07-26T17:49:00.997Z,26.83
2018-07-26T17:51:30.235Z,26.78
2018-07-26T17:53:59.341Z,26.67
2018-07-26T17:56:28.470Z,26.65
2018-07-26T17:58:57.739Z,26.59
2018-07-26T18:01:27.054Z,26.59
2018-07-26T18:03:56.305Z,26.36
2018-07-26T18:06:25.575Z,26.41
2018-07-26T18:08:54.619Z,26.22
2018-07-26T18:11:23.961Z,25.96
2018-07-26T18:13:53.318Z,25.68
2018-07-26T18:16:22.272Z,25.54
2018-07-26T18:18:51.221Z,25.40
2018-07-26T18:21:20.692Z,25.24
2018-07-26T18:23:49.591Z,25.11
2018-07-26T18:26:18.761Z,25.03
2018-07-26T18:28:47.802Z,24.89
2018-07-26T18:31:16.927Z,24.58
2018-07-26T18:33:46.210Z,24.44
2018-07-26T18:36:15.318Z,24.23
2018-07-26T18:38:44.563Z,24.23
2018-07-26T18:41:13.715Z,24.02
2018-07-26T18:43:42.709Z,23.99
2018-07-26T18:46:11.858Z,23.82
2018-07-26T18:48:41.347Z,23.72
2018-07-26T18:51:10.134Z,23.83
2018-07-26T18:53:39.579Z,23.82
2018-07-26T18:56:08.935Z,23.82
2018-07-26T18:58:37.987Z,23.75
2018-07-26T19:01:07.260Z,23.77
2018-07-26T19:03:36.290Z,23.74
2018-07-26T19:06:05.222Z,23.72
2018-07-26T19:08:34.325Z,23.67
2018-07-26T19:11:03.251Z,23.62
2018-07-26T19:13:32.397Z,23.61
2018-07-26T19:16:01.519Z,23.61
2018-07-26T19:18:30.738Z,23.63
2018-07-26T19:20:59.931Z,23.56
2018-07-26T19:23:29.023Z,23.55
2018-07-26T19:25:59.864Z,23.50
2018-07-26T19:28:28.955Z,23.47
2018-07-26T19:30:58.150Z,23.47
2018-07-26T19:33:27.342Z,23.49
2018-07-26T19:35:56.434Z,23.48
2018-07-26T19:38:25.694Z,23.54
2018-07-26T19:40:55.000Z,23.54
2018-07-26T19:43:24.283Z,23.51
2018-07-26T19:45:53.399Z,23.61
2018-07-26T19:48:22.266Z,23.61
2018-07-26T19:50:51.363Z,23.58
2018-07-26T19:53:20.309Z,23.53
2018-07-26T19:55:49.481Z,23.50
2018-07-26T19:58:18.342Z,23.48
2018-07-26T20:00:47.564Z,23.46
2018-07-26T20:03:16.538Z,23.45
2018-07-26T20:05:45.726Z,23.42
2018-07-26T20:08:14.820Z,23.42
2018-07-26T20:10:43.790Z,23.43
2018-07-26T20:13:13.060Z,23.44
2018-07-26T20:15:42.182Z,23.46
2018-07-26T20:18:11.436Z,23.46
2018-07-26T20:20:40.438Z,23.48
2018-07-26T20:23:09.646Z,23.43
2018-07-26T20:25:45.442Z,23.42
2018-07-26T20:28:14.718Z,23.46
2018-07-26T20:30:43.721Z,23.49
2018-07-26T20:33:12.907Z,23.48
2018-07-26T20:35:41.707Z,23.54
2018-07-26T20:38:10.718Z,23.61
2018-07-26T20:40:39.647Z,23.68
2018-07-26T20:43:08.738Z,23.69
2018-07-26T20:45:37.834Z,23.71
2018-07-26T20:48:06.966Z,23.68
2018-07-26T20:50:35.877Z,23.70
2018-07-26T20:53:05.163Z,23.70
2018-07-26T20:55:33.972Z,23.68
2018-07-26T20:58:02.778Z,23.67
2018-07-26T21:00:31.478Z,23.69
2018-07-26T21:03:00.519Z,23.70
2018-07-26T21:05:29.729Z,23.69
2018-07-26T21:07:59.170Z,23.69
2018-07-26T21:10:28.183Z,23.67
2018-07-26T21:12:57.002Z,23.64
2018-07-26T21:15:26.084Z,23.64
2018-07-26T21:17:55.248Z,23.64
2018-07-26T21:20:24.334Z,23.66
2018-07-26T21:22:53.475Z,23.65
2018-07-26T21:25:22.640Z,23.61
2018-07-26T21:27:51.729Z,23.61
2018-07-26T21:30:21.014Z,23.66
2018-07-26T21:32:49.706Z,23.76
2018-07-26T21:35:18.916Z,23.75
2018-07-26T21:37:48.173Z,23.70
2018-07-26T21:40:17.274Z,23.64
2018-07-26T21:42:46.143Z,23.53
2018-07-26T21:45:14.972Z,23.46
2018-07-26T21:47:43.737Z,23.43
2018-07-26T21:50:12.706Z,23.39
2018-07-26T21:52:41.844Z,23.40
2018-07-26T21:55:10.977Z,23.40
2018-07-26T21:57:40.517Z,23.37
2018-07-26T22:00:11.126Z,23.41
2018-07-26T22:02:40.476Z,23.44
2018-07-26T22:05:09.707Z,23.44
2018-07-26T22:07:39.042Z,23.46
2018-07-26T22:10:08.097Z,23.47
2018-07-26T22:12:37.311Z,23.46
2018-07-26T22:15:06.953Z,23.48
2018-07-26T22:17:36.255Z,23.49
2018-07-26T22:20:05.801Z,23.50
2018-07-26T22:22:35.147Z,23.51
2018-07-26T22:25:04.222Z,23.54
2018-07-26T22:27:33.434Z,23.51
2018-07-26T22:30:02.303Z,23.55
2018-07-26T22:32:31.512Z,23.54
2018-07-26T22:35:00.670Z,23.53
2018-07-26T22:37:29.630Z,23.54
2018-07-26T22:39:58.622Z,23.56
2018-07-26T22:42:27.779Z,23.53
2018-07-26T22:44:56.920Z,23.48
2018-07-26T22:47:25.844Z,23.40
2018-07-26T22:49:55.074Z,23.45
2018-07-26T22:52:24.390Z,23.26
2018-07-26T22:54:53.490Z,23.32
2018-07-26T22:57:22.642Z,23.18
2018-07-26T22:59:51.553Z,23.22
2018-07-26T23:02:20.812Z,23.37
2018-07-26T23:04:51.577Z,23.13
2018-07-26T23:07:20.562Z,23.28
2018-07-26T23:09:49.458Z,23.09
2018-07-26T23:12:19.112Z,23.10
2018-07-26T23:14:48.354Z,23.03
2018-07-26T23:17:17.612Z,22.94
2018-07-26T23:19:46.855Z,23.00
2018-07-26T23:22:16.335Z,22.99
2018-07-26T23:24:45.462Z,23.00
2018-07-26T23:27:14.646Z,23.01
2018-07-26T23:29:43.683Z,23.08
2018-07-26T23:32:12.913Z,22.96
2018-07-26T23:34:41.699Z,22.87
2018-07-26T23:37:11.047Z,22.76
2018-07-26T23:39:40.190Z,22.87
2018-07-26T23:42:09.507Z,22.91
2018-07-26T23:44:38.808Z,22.86
2018-07-26T23:47:07.622Z,22.76
2018-07-26T23:49:36.787Z,22.67
2018-07-26T23:52:05.870Z,22.62
2018-07-26T23:54:35.077Z,22.59
2018-07-26T23:57:04.333Z,22.62
2018-07-26T23:59:33.222Z,22.54
